Time;durP1;ratioP1;P1;durP2;ratioP2;P2;SDS_P1;SDS_P2;PMS_P1;PMS_P2;Temp;Humidity;BMP_temperature;BMP_pressure;BME280_temperature;BME280_humidity;BME280_pressure;Samples;Min_cycle;Max_cycle;Signal;HPM_P1;HPM_P2
2023/09/10 00:00:38;;;;;;;22.42;20.02;;;;;;;23.15;65.02;101599.13;5054474;28;20032;-66
2023/09/10 00:03:04;;;;;;;20.75;18.48;;;;;;;23.16;65.12;101597.13;5053055;28;20029;-66
2023/09/10 00:05:32;;;;;;;23.40;20.23;;;;;;;23.16;65.19;101603.63;5060773;28;20037;-66
2023/09/10 00:07:58;;;;;;;21.80;19.55;;;;;;;23.14;65.01;101599.41;5054584;28;20104;-67
2023/09/10 00:10:23;;;;;;;25.65;19.52;;;;;;;23.12;65.18;101599.75;5054298;28;20484;-66
2023/09/10 00:12:49;;;;;;;25.95;21.30;;;;;;;23.11;65.01;101597.22;5089233;28;20047;-66
2023/09/10 00:15:14;;;;;;;25.20;19.75;;;;;;;23.12;65.18;101610.25;5094542;28;20111;-66
2023/09/10 00:17:39;;;;;;;22.70;20.05;;;;;;;23.10;65.52;101596.38;5094297;28;20058;-66
2023/09/10 00:20:07;;;;;;;23.50;20.33;;;;;;;23.06;65.13;101598.19;5073358;28;20122;-66
2023/09/10 00:22:32;;;;;;;22.77;20.33;;;;;;;23.08;65.58;101597.88;5073237;28;20038;-66
2023/09/10 00:24:58;;;;;;;22.92;20.63;;;;;;;23.03;65.61;101594.03;5084055;28;20028;-66
2023/09/10 00:27:23;;;;;;;25.88;22.63;;;;;;;23.01;65.64;101593.47;5093732;28;20476;-66
2023/09/10 00:29:49;;;;;;;25.25;22.65;;;;;;;22.99;65.33;101598.66;5094142;28;20471;-67
2023/09/10 00:32:14;;;;;;;28.42;22.95;;;;;;;22.98;65.37;101598.94;5094144;28;20031;-66
2023/09/10 00:34:39;;;;;;;23.90;21.48;;;;;;;22.98;65.65;101594.13;5093242;28;20425;-66
2023/09/10 00:37:04;;;;;;;24.13;21.63;;;;;;;23.00;65.38;101596.66;5074304;28;20032;-67
2023/09/10 00:39:30;;;;;;;25.02;22.42;;;;;;;22.95;65.71;101589.13;5056166;28;20025;-66
2023/09/10 00:41:55;;;;;;;26.20;23.40;;;;;;;22.97;65.62;101585.97;5053007;28;20123;-66
2023/09/10 00:44:23;;;;;;;24.98;21.83;;;;;;;22.96;65.57;101592.78;5053802;28;20021;-66
2023/09/10 00:46:51;;;;;;;27.35;24.65;;;;;;;22.88;65.83;101593.50;5053605;28;20028;-65
2023/09/10 00:49:17;;;;;;;24.17;21.75;;;;;;;22.92;65.57;101588.91;5069639;28;20048;-66
2023/09/10 00:51:43;;;;;;;27.63;23.40;;;;;;;22.93;65.56;101590.59;5073588;28;20468;-66
2023/09/10 00:54:09;;;;;;;25.52;22.95;;;;;;;22.89;65.70;101583.84;5074530;28;20076;-66
2023/09/10 00:56:35;;;;;;;26.60;23.65;;;;;;;22.89;65.25;101586.69;5070885;28;20063;-66
2023/09/10 00:59:00;;;;;;;27.35;24.60;;;;;;;22.82;65.39;101592.78;5073458;28;20067;-66
2023/09/10 01:01:26;;;;;;;28.58;24.60;;;;;;;22.85;65.43;101586.47;5072648;28;20586;-66
2023/09/10 01:03:51;;;;;;;26.33;23.65;;;;;;;22.87;65.58;101592.69;5073603;28;20040;-66
2023/09/10 01:06:17;;;;;;;28.10;25.27;;;;;;;22.84;65.63;101584.81;5073475;28;20097;-66
2023/09/10 01:08:42;;;;;;;28.02;24.48;;;;;;;22.84;65.07;101586.81;5087069;28;20402;-66
2023/09/10 01:11:12;;;;;;;29.55;26.13;;;;;;;22.78;65.30;101586.06;5069121;28;20632;-65
2023/09/10 01:13:52;;;;;;;25.75;22.75;;;;;;;22.80;65.33;101586.59;5053574;28;20115;-65
2023/09/10 01:16:23;;;;;;;27.63;24.67;;;;;;;22.71;65.29;101580.84;5052441;28;20021;-65
2023/09/10 01:18:59;;;;;;;29.23;26.23;;;;;;;22.75;65.55;101587.56;5053031;28;20041;-65
2023/09/10 01:21:32;;;;;;;28.13;24.90;;;;;;;22.77;65.37;101590.06;5053068;28;20021;-66
2023/09/10 01:24:19;;;;;;;29.65;26.50;;;;;;;22.74;65.59;101585.03;5060547;28;20384;-66
2023/09/10 01:26:57;;;;;;;30.63;26.27;;;;;;;22.72;65.70;101584.53;5083782;28;20086;-66
2023/09/10 01:29:23;;;;;;;29.48;26.42;;;;;;;22.69;65.67;101590.81;5065741;28;20535;-67
2023/09/10 01:31:57;;;;;;;28.15;25.25;;;;;;;22.69;65.75;101585.16;5052518;28;20032;-67
2023/09/10 01:34:26;;;;;;;31.02;27.13;;;;;;;22.68;65.47;101584.31;5060408;28;20123;-66
2023/09/10 01:37:01;;;;;;;30.80;27.42;;;;;;;22.65;65.73;101593.44;5051714;28;20033;-67
2023/09/10 01:39:36;;;;;;;28.88;26.08;;;;;;;22.64;65.74;101588.94;5052747;28;20036;-67
2023/09/10 01:42:04;;;;;;;31.60;28.25;;;;;;;22.59;65.90;101589.03;5074889;28;20553;-66
2023/09/10 01:44:31;;;;;;;31.08;27.92;;;;;;;22.61;65.70;101592.41;5088762;28;20040;-66
2023/09/10 01:46:57;;;;;;;31.67;28.40;;;;;;;22.57;65.59;101599.84;5071562;28;20115;-66
2023/09/10 01:49:24;;;;;;;29.83;26.60;;;;;;;22.55;65.95;101594.50;5052122;28;20152;-65
2023/09/10 01:51:49;;;;;;;30.40;27.42;;;;;;;22.57;65.80;101597.03;5051665;28;20460;-67
2023/09/10 01:54:15;;;;;;;31.33;27.85;;;;;;;22.56;65.64;101601.00;5052436;28;20108;-67
2023/09/10 01:56:40;;;;;;;31.67;28.55;;;;;;;22.57;65.70;101594.19;5052571;28;20032;-67
2023/09/10 01:59:05;;;;;;;30.95;27.63;;;;;;;22.56;66.00;101592.53;5051661;28;20480;-66
2023/09/10 02:01:31;;;;;;;32.92;29.23;;;;;;;22.55;65.75;101599.31;5073555;28;20052;-66
2023/09/10 02:03:56;;;;;;;32.97;29.63;;;;;;;22.53;65.52;101605.31;5063854;28;20044;-66
2023/09/10 02:06:21;;;;;;;34.55;31.20;;;;;;;22.53;65.59;101598.81;5051094;28;20021;-66
2023/09/10 02:08:46;;;;;;;31.95;28.67;;;;;;;22.53;65.79;101610.13;5052139;28;20040;-66
2023/09/10 02:11:12;;;;;;;32.85;29.58;;;;;;;22.49;65.74;101607.09;5052263;28;20032;-65
2023/09/10 02:13:37;;;;;;;34.30;30.90;;;;;;;22.50;66.09;101602.25;5051096;28;20071;-66
2023/09/10 02:16:03;;;;;;;33.42;29.83;;;;;;;22.48;66.10;101602.59;5082206;28;20110;-65
2023/09/10 02:18:29;;;;;;;35.92;32.30;;;;;;;22.46;66.28;101602.06;5091702;28;20048;-65
2023/09/10 02:20:55;;;;;;;35.47;31.70;;;;;;;22.46;66.28;101604.03;5064847;28;20032;-66
2023/09/10 02:23:20;;;;;;;32.33;29.20;;;;;;;22.45;66.26;101608.88;5052087;28;20116;-66
2023/09/10 02:25:46;;;;;;;36.08;32.50;;;;;;;22.41;66.20;101610.66;5051025;28;20031;-65
2023/09/10 02:28:11;;;;;;;36.45;32.58;;;;;;;22.39;66.11;101607.28;5051622;28;20116;-65
2023/09/10 02:30:36;;;;;;;34.83;31.15;;;;;;;22.39;66.51;101603.63;5079782;28;20059;-66
2023/09/10 02:33:02;;;;;;;36.47;32.67;;;;;;;22.37;66.37;101605.94;5090836;28;20760;-66
2023/09/10 02:35:28;;;;;;;37.15;33.38;;;;;;;22.36;66.50;101601.41;5091654;28;20107;-66
2023/09/10 02:37:53;;;;;;;34.45;30.63;;;;;;;22.35;66.23;101600.59;5071917;28;20071;-66
2023/09/10 02:40:18;;;;;;;33.10;29.63;;;;;;;22.36;66.24;101605.13;5050628;28;20037;-66
2023/09/10 02:42:44;;;;;;;36.28;32.67;;;;;;;22.29;66.48;101588.56;5051289;28;20131;-65
2023/09/10 02:45:10;;;;;;;35.92;32.22;;;;;;;22.29;66.44;101594.22;5075049;28;20051;-66
2023/09/10 02:47:36;;;;;;;36.05;31.73;;;;;;;22.30;66.29;101600.69;5069408;28;20035;-66
2023/09/10 02:50:01;;;;;;;39.95;32.42;;;;;;;22.27;66.47;101599.34;5071199;28;20385;-66
2023/09/10 02:52:30;;;;;;;33.92;30.27;;;;;;;22.29;66.57;101605.53;5068852;28;20472;-65
2023/09/10 02:54:55;;;;;;;35.70;32.00;;;;;;;22.20;66.57;101601.72;5065125;28;20384;-67
2023/09/10 02:57:20;;;;;;;35.83;32.03;;;;;;;22.23;66.48;101601.13;5058639;28;20035;-65
2023/09/10 02:59:46;;;;;;;34.20;30.55;;;;;;;22.18;66.51;101604.06;5067531;28;20113;-66
2023/09/10 03:02:11;;;;;;;37.83;31.40;;;;;;;22.20;66.77;101606.56;5054133;28;20480;-66
2023/09/10 03:04:36;;;;;;;34.10;30.50;;;;;;;22.21;66.65;101609.09;5063017;28;20043;-66
2023/09/10 03:07:02;;;;;;;34.30;30.70;;;;;;;22.19;66.65;101608.53;5070140;28;20044;-66
2023/09/10 03:09:27;;;;;;;35.95;32.03;;;;;;;22.17;66.46;101607.19;5068426;28;20029;-66
2023/09/10 03:12:13;;;;;;;35.70;30.95;;;;;;;22.18;66.58;101606.03;5069406;28;20028;-66
2023/09/10 03:14:38;;;;;;;39.10;32.85;;;;;;;22.14;66.66;101611.47;5057971;28;20032;-66
2023/09/10 03:17:03;;;;;;;36.05;32.25;;;;;;;22.15;66.64;101598.19;5065182;28;20028;-66
2023/09/10 03:19:29;;;;;;;36.63;32.75;;;;;;;22.14;66.61;101600.19;5074746;28;20438;-66
2023/09/10 03:21:54;;;;;;;36.42;31.52;;;;;;;22.13;66.41;101601.34;5070374;28;20376;-66
2023/09/10 03:24:19;;;;;;;37.25;31.27;;;;;;;22.12;66.58;101593.94;5069993;28;20021;-67
2023/09/10 03:26:45;;;;;;;34.78;31.02;;;;;;;22.10;66.65;101599.09;5069644;28;20118;-66
2023/09/10 03:29:10;;;;;;;33.78;30.15;;;;;;;22.12;66.59;101593.94;5066975;28;20480;-66
2023/09/10 03:31:35;;;;;;;33.42;29.83;;;;;;;22.10;66.32;101601.91;5062077;28;20032;-66
2023/09/10 03:34:00;;;;;;;35.42;31.65;;;;;;;22.07;66.74;101594.06;5076098;28;20031;-66
2023/09/10 03:36:26;;;;;;;37.05;33.40;;;;;;;22.05;66.49;101594.38;5069177;28;20036;-66
2023/09/10 03:38:51;;;;;;;38.83;34.05;;;;;;;21.96;66.80;101590.59;5061062;28;20041;-66
2023/09/10 03:41:17;;;;;;;34.97;31.15;;;;;;;22.03;66.64;101598.66;5070403;28;20027;-67
2023/09/10 03:43:42;;;;;;;38.28;34.28;;;;;;;21.98;66.46;101593.94;5067002;28;20484;-66
2023/09/10 03:46:07;;;;;;;38.05;33.83;;;;;;;21.96;66.91;101596.25;5052747;28;20170;-66
2023/09/10 03:48:33;;;;;;;39.05;34.65;;;;;;;21.96;66.91;101601.06;5073178;28;20055;-67
2023/09/10 03:50:58;;;;;;;36.42;32.53;;;;;;;21.98;66.72;101593.13;5069810;28;20518;-66
2023/09/10 03:53:23;;;;;;;35.78;32.28;;;;;;;21.99;66.70;101583.47;5070315;28;20047;-66
2023/09/10 03:55:49;;;;;;;33.45;29.92;;;;;;;21.99;66.94;101586.31;5070359;28;20115;-67
2023/09/10 03:58:14;;;;;;;37.40;33.13;;;;;;;21.96;66.64;101587.75;5054543;28;20039;-66
2023/09/10 04:00:39;;;;;;;40.13;35.92;;;;;;;21.91;66.75;101593.53;5062755;28;20111;-68
2023/09/10 04:03:05;;;;;;;40.35;36.20;;;;;;;21.88;66.99;101587.66;5062296;28;20052;-66
2023/09/10 04:05:30;;;;;;;39.00;34.90;;;;;;;21.88;66.92;101582.00;5049708;28;20048;-66
2023/09/10 04:07:55;;;;;;;38.55;34.55;;;;;;;21.90;66.89;101579.72;5050096;28;20083;-67
2023/09/10 04:10:21;;;;;;;37.78;33.78;;;;;;;21.90;67.04;101576.88;5050208;28;20029;-67
2023/09/10 04:12:46;;;;;;;41.25;37.03;;;;;;;21.84;67.15;101583.78;5049319;28;20025;-67
2023/09/10 04:15:11;;;;;;;41.35;36.97;;;;;;;21.84;67.00;101587.44;5059925;28;20025;-66
2023/09/10 04:17:37;;;;;;;42.85;38.38;;;;;;;21.80;67.09;101581.56;5054152;28;20040;-67
2023/09/10 04:20:07;;;;;;;41.22;37.00;;;;;;;21.83;67.19;101579.28;5053505;28;20092;-67
2023/09/10 04:22:33;;;;;;;42.60;38.05;;;;;;;21.79;67.37;101577.06;5053886;28;20025;-67
2023/09/10 04:24:58;;;;;;;43.60;37.75;;;;;;;21.81;67.26;101577.59;5073120;28;20111;-66
2023/09/10 04:27:23;;;;;;;40.67;36.42;;;;;;;21.81;67.35;101574.78;5073051;28;20029;-67
2023/09/10 04:29:48;;;;;;;44.58;39.90;;;;;;;21.78;67.19;101569.75;5084621;28;20032;-66
2023/09/10 04:32:14;;;;;;;42.50;38.13;;;;;;;21.81;67.17;101574.78;5066987;28;20108;-66
2023/09/10 04:34:39;;;;;;;42.83;37.78;;;;;;;21.80;67.23;101567.44;5053049;28;20045;-66
2023/09/10 04:37:04;;;;;;;44.13;39.55;;;;;;;21.79;67.20;101577.06;5054377;28;20388;-67
2023/09/10 04:39:30;;;;;;;42.58;37.78;;;;;;;21.79;67.40;101579.06;5052819;28;20028;-66
2023/09/10 04:41:55;;;;;;;42.90;38.22;;;;;;;21.79;67.41;101582.72;5053600;28;20059;-66
2023/09/10 04:44:21;;;;;;;42.03;37.53;;;;;;;21.79;67.21;101570.59;5074711;28;20588;-66
2023/09/10 04:46:46;;;;;;;41.97;37.67;;;;;;;21.77;67.16;101581.34;5092955;28;20102;-67
2023/09/10 04:49:12;;;;;;;41.08;36.75;;;;;;;21.78;67.31;101578.22;5072115;28;20023;-66
2023/09/10 04:51:37;;;;;;;42.72;38.28;;;;;;;21.74;67.23;101579.16;5065973;28;20041;-66
2023/09/10 04:54:02;;;;;;;41.83;36.58;;;;;;;21.74;67.21;101576.34;5070608;28;20420;-67
2023/09/10 04:56:28;;;;;;;45.72;40.92;;;;;;;21.66;67.52;101575.06;5073101;28;20091;-66
2023/09/10 04:58:53;;;;;;;47.60;42.53;;;;;;;21.67;67.51;101585.22;5086010;28;20042;-67
2023/09/10 05:01:18;;;;;;;46.58;41.50;;;;;;;21.66;67.45;101583.53;5080917;28;20032;-67
2023/09/10 05:03:44;;;;;;;43.38;38.88;;;;;;;21.69;67.64;101585.75;5062040;28;20064;-66
2023/09/10 05:06:09;;;;;;;40.50;36.40;;;;;;;21.69;67.36;101588.56;5052980;28;20433;-67
2023/09/10 05:08:35;;;;;;;41.58;37.38;;;;;;;21.70;67.51;101587.41;5052227;28;20021;-66
2023/09/10 05:11:01;;;;;;;44.00;39.50;;;;;;;21.66;67.48;101592.00;5053464;28;20124;-66
2023/09/10 05:13:26;;;;;;;42.80;38.20;;;;;;;21.67;67.45;101593.69;5052686;28;20025;-66
2023/09/10 05:15:57;;;;;;;42.90;38.58;;;;;;;21.64;67.53;101591.47;5052359;28;20082;-66
2023/09/10 05:18:23;;;;;;;46.92;42.05;;;;;;;21.58;67.65;101594.72;5072440;28;20036;-67
2023/09/10 05:20:48;;;;;;;46.15;41.47;;;;;;;21.60;67.69;101596.06;5066427;28;20029;-67
2023/09/10 05:23:14;;;;;;;46.83;41.85;;;;;;;21.59;67.90;101596.38;5062057;28;20491;-66
2023/09/10 05:25:39;;;;;;;46.90;41.97;;;;;;;21.62;67.79;101593.78;5060397;28;20031;-67
2023/09/10 05:28:05;;;;;;;46.00;41.13;;;;;;;21.60;68.02;101601.72;5064280;28;20385;-66
2023/09/10 05:30:30;;;;;;;47.78;41.72;;;;;;;21.58;68.08;101598.38;5051953;28;20025;-66
2023/09/10 05:32:56;;;;;;;44.22;39.55;;;;;;;21.60;68.05;101593.25;5071372;28;20056;-66
2023/09/10 05:35:22;;;;;;;44.60;39.72;;;;;;;21.60;68.22;101593.25;5072420;28;20029;-66
2023/09/10 05:37:47;;;;;;;39.47;35.47;;;;;;;21.62;68.06;101592.94;5072155;28;20432;-66
2023/09/10 05:40:12;;;;;;;39.70;35.75;;;;;;;21.64;68.06;101599.94;5079902;28;20028;-67
2023/09/10 05:42:38;;;;;;;44.15;39.72;;;;;;;21.61;68.51;101603.38;5091747;28;20020;-67
2023/09/10 05:45:03;;;;;;;47.15;42.05;;;;;;;21.61;68.31;101603.38;5076417;28;20035;-66
2023/09/10 05:47:29;;;;;;;43.78;39.05;;;;;;;21.65;68.23;101600.78;5052401;28;20032;-66
2023/09/10 05:49:54;;;;;;;43.85;39.40;;;;;;;21.64;68.43;101599.94;5051493;28;20116;-67
2023/09/10 05:52:19;;;;;;;43.55;38.83;;;;;;;21.67;68.41;101595.69;5079968;28;20063;-67
2023/09/10 05:54:45;;;;;;;41.90;37.58;;;;;;;21.67;68.25;101595.69;5073321;28;20041;-66
2023/09/10 05:57:10;;;;;;;42.03;37.78;;;;;;;21.68;68.54;101601.00;5070857;28;20028;-66
2023/09/10 05:59:35;;;;;;;45.40;40.40;;;;;;;21.67;68.56;101605.00;5071874;28;20042;-66
2023/09/10 06:02:01;;;;;;;44.42;39.80;;;;;;;21.68;68.80;101605.81;5074152;28;20085;-67
2023/09/10 06:04:27;;;;;;;44.22;39.72;;;;;;;21.70;68.95;101614.84;5091393;28;20452;-67
2023/09/10 06:06:52;;;;;;;38.30;34.47;;;;;;;21.73;68.96;101609.41;5092194;28;20097;-66
2023/09/10 06:09:18;;;;;;;43.50;38.58;;;;;;;21.74;68.73;101615.91;5091900;28;20483;-66
2023/09/10 06:11:43;;;;;;;39.22;35.33;;;;;;;21.78;69.08;101623.44;5069732;28;20044;-66
2023/09/10 06:14:08;;;;;;;40.70;36.53;;;;;;;21.80;69.08;101623.13;5071598;28;20580;-67
2023/09/10 06:16:34;;;;;;;43.50;38.85;;;;;;;21.79;69.29;101625.09;5074389;28;20081;-67
2023/09/10 06:18:59;;;;;;;37.50;33.55;;;;;;;21.83;69.02;101624.50;5076082;28;20049;-67
2023/09/10 06:21:24;;;;;;;41.85;37.33;;;;;;;21.84;69.63;101627.00;5051554;28;20028;-67
2023/09/10 06:23:50;;;;;;;37.30;33.40;;;;;;;21.87;69.26;101626.38;5051610;28;20029;-67
2023/09/10 06:26:15;;;;;;;39.78;35.50;;;;;;;21.89;69.50;101624.09;5048921;28;20037;-67
2023/09/10 06:28:40;;;;;;;39.30;34.95;;;;;;;21.91;69.39;101626.59;5063531;28;20071;-67
2023/09/10 06:31:06;;;;;;;41.33;37.00;;;;;;;21.91;69.52;101627.44;5071483;28;20099;-66
2023/09/10 06:33:33;;;;;;;37.50;33.53;;;;;;;21.93;69.53;101624.28;5070631;28;20472;-66
2023/09/10 06:35:58;;;;;;;36.78;33.00;;;;;;;21.98;69.46;101635.53;5070033;28;20048;-66
2023/09/10 06:38:24;;;;;;;36.83;33.03;;;;;;;21.99;69.33;101631.53;5070782;28;20040;-66
2023/09/10 06:40:51;;;;;;;36.17;31.33;;;;;;;22.02;69.36;101633.75;5070396;28;20032;-66
2023/09/10 06:43:16;;;;;;;38.05;34.05;;;;;;;22.02;69.51;101634.59;5068200;28;20020;-66
2023/09/10 06:45:43;;;;;;;36.28;32.55;;;;;;;22.05;69.49;101628.31;5071633;28;20090;-66
2023/09/10 06:48:08;;;;;;;35.95;32.25;;;;;;;22.07;69.28;101625.16;5076673;28;20070;-66
2023/09/10 06:50:33;;;;;;;34.20;30.83;;;;;;;22.11;69.47;101631.03;5062546;28;20041;-66
2023/09/10 06:52:59;;;;;;;34.67;30.95;;;;;;;22.12;69.02;101636.34;5069736;28;20044;-67
2023/09/10 06:55:24;;;;;;;33.65;30.05;;;;;;;22.15;69.23;101638.59;5071075;28;20056;-67
2023/09/10 06:57:49;;;;;;;33.60;30.15;;;;;;;22.19;69.42;101638.81;5071209;28;20078;-66
2023/09/10 07:00:15;;;;;;;32.70;29.25;;;;;;;22.20;69.71;101643.31;5062239;28;20383;-67
2023/09/10 07:02:40;;;;;;;35.00;30.65;;;;;;;22.24;69.93;101633.91;5065169;28;20044;-66
2023/09/10 07:05:07;;;;;;;39.30;33.28;;;;;;;22.26;70.29;101645.75;5067527;28;20063;-67
2023/09/10 07:07:32;;;;;;;33.15;30.05;;;;;;;22.28;70.25;101637.78;5067689;28;20522;-66
2023/09/10 07:09:58;;;;;;;30.88;27.67;;;;;;;22.30;69.88;101646.78;5050817;28;20024;-67
2023/09/10 07:12:23;;;;;;;33.92;30.30;;;;;;;22.32;70.72;101646.47;5051328;28;20021;-67
2023/09/10 07:14:49;;;;;;;33.83;30.13;;;;;;;22.36;70.61;101646.69;5050238;28;20762;-67
2023/09/10 07:17:14;;;;;;;33.63;29.98;;;;;;;22.37;70.76;101645.53;5059346;28;20115;-67
2023/09/10 07:19:40;;;;;;;31.38;28.27;;;;;;;22.41;70.72;101643.75;5069191;28;20084;-68
2023/09/10 07:22:06;;;;;;;32.08;28.80;;;;;;;22.45;70.94;101647.63;5065903;28;20437;-68
2023/09/10 07:24:31;;;;;;;31.55;28.35;;;;;;;22.48;70.81;101647.03;5070960;28;20472;-67
2023/09/10 07:26:58;;;;;;;30.50;27.40;;;;;;;22.52;71.20;101642.41;5069888;28;20016;-68
2023/09/10 07:29:24;;;;;;;32.35;28.10;;;;;;;22.56;71.20;101643.44;5073837;28;20028;-67
2023/09/10 07:31:49;;;;;;;34.45;28.85;;;;;;;22.60;71.30;101643.63;5089980;28;20066;-67
2023/09/10 07:34:15;;;;;;;30.85;26.70;;;;;;;22.64;70.93;101648.38;5083135;28;20039;-67
2023/09/10 07:36:40;;;;;;;30.60;27.55;;;;;;;22.70;70.94;101644.25;5050387;28;20083;-68
2023/09/10 07:39:06;;;;;;;31.10;27.65;;;;;;;22.77;71.64;101646.66;5050739;28;20043;-67
2023/09/10 07:41:32;;;;;;;29.52;25.25;;;;;;;22.83;71.19;101648.22;5058145;28;20028;-67
2023/09/10 07:43:57;;;;;;;27.85;24.65;;;;;;;22.91;71.81;101650.38;5070774;28;20055;-67
2023/09/10 07:46:22;;;;;;;27.48;24.60;;;;;;;23.00;71.47;101647.63;5074060;28;20032;-66
2023/09/10 07:48:48;;;;;;;25.85;23.00;;;;;;;23.05;70.68;101644.66;5066731;28;20044;-67
2023/09/10 07:51:13;;;;;;;24.02;21.55;;;;;;;23.12;70.60;101644.22;5061583;28;20472;-66
2023/09/10 07:53:38;;;;;;;23.20;20.60;;;;;;;23.24;70.54;101648.16;5085645;28;20083;-65
2023/09/10 07:56:04;;;;;;;22.75;20.35;;;;;;;23.25;70.29;101649.84;5072127;28;20028;-66
2023/09/10 07:58:29;;;;;;;23.77;19.17;;;;;;;23.30;69.86;101648.88;5055609;28;20478;-66
2023/09/10 08:00:57;;;;;;;21.75;19.10;;;;;;;23.40;69.54;101650.63;5072640;28;20040;-66
2023/09/10 08:03:23;;;;;;;23.77;17.95;;;;;;;23.43;68.96;101655.66;5057763;28;20025;-67
2023/09/10 08:05:49;;;;;;;22.88;17.80;;;;;;;23.50;68.67;101653.19;5061604;28;20039;-67
2023/09/10 08:08:14;;;;;;;23.67;17.10;;;;;;;23.63;69.31;101657.97;5069161;28;20024;-67
2023/09/10 08:10:39;;;;;;;23.73;15.57;;;;;;;23.74;68.57;101667.94;5073742;28;20404;-67
2023/09/10 08:13:05;;;;;;;22.10;15.13;;;;;;;23.85;67.84;101667.66;5063635;28;20020;-67
2023/09/10 08:15:31;;;;;;;20.48;14.52;;;;;;;23.94;67.04;101666.56;5074451;28;20109;-67
2023/09/10 08:17:57;;;;;;;18.75;14.15;;;;;;;23.99;67.13;101655.06;5074976;28;20024;-66
2023/09/10 08:20:23;;;;;;;21.05;14.52;;;;;;;24.06;66.96;101663.13;5072978;28;20119;-67
2023/09/10 08:22:48;;;;;;;16.95;13.38;;;;;;;24.16;66.64;101660.00;5073053;28;20809;-66
2023/09/10 08:25:14;;;;;;;15.13;12.60;;;;;;;24.20;66.14;101658.19;5071068;28;20029;-67
2023/09/10 08:27:40;;;;;;;19.42;13.27;;;;;;;24.29;65.79;101655.41;5088517;28;20039;-67
2023/09/10 08:30:07;;;;;;;17.75;12.57;;;;;;;24.41;66.12;101654.81;5078826;28;20110;-67
2023/09/10 08:32:33;;;;;;;16.83;12.57;;;;;;;24.46;65.52;101649.00;5072736;28;20476;-66
2023/09/10 08:34:59;;;;;;;17.73;11.60;;;;;;;24.55;65.34;101640.50;5067530;28;20033;-67
2023/09/10 08:37:24;;;;;;;18.90;12.02;;;;;;;24.67;65.30;101646.38;5073766;28;20100;-66
2023/09/10 08:39:50;;;;;;;14.43;11.55;;;;;;;24.76;64.96;101647.25;5073887;28;20038;-66
2023/09/10 08:42:21;;;;;;;16.00;12.32;;;;;;;24.79;65.06;101655.09;5067369;28;20021;-67
2023/09/10 08:44:53;;;;;;;16.42;13.23;;;;;;;24.79;64.59;101651.41;5067142;28;20101;-66
2023/09/10 08:47:22;;;;;;;17.52;11.90;;;;;;;24.90;64.47;101658.47;5083479;28;20369;-65
2023/09/10 08:49:51;;;;;;;12.93;11.35;;;;;;;24.95;64.31;101655.47;5071544;28;20077;-65
2023/09/10 08:52:18;;;;;;;15.45;10.50;;;;;;;25.07;64.50;101660.50;5058860;28;20028;-66
2023/09/10 08:54:43;;;;;;;18.38;11.70;;;;;;;25.18;63.39;101653.34;5053065;28;20040;-65
2023/09/10 08:57:11;;;;;;;16.83;11.68;;;;;;;25.18;64.21;101662.72;5053660;28;20024;-66
2023/09/10 08:59:38;;;;;;;17.90;11.63;;;;;;;25.24;64.27;101662.56;5051919;28;20025;-67
2023/09/10 09:02:04;;;;;;;17.98;11.88;;;;;;;25.23;64.17;101650.38;5053236;28;20032;-66
2023/09/10 09:04:30;;;;;;;18.02;11.57;;;;;;;25.34;63.68;101656.53;5075368;28;20089;-66
2023/09/10 09:07:00;;;;;;;15.23;10.57;;;;;;;25.53;63.05;101659.88;5071729;28;20027;-66
2023/09/10 09:09:31;;;;;;;14.43;11.48;;;;;;;25.49;62.50;101658.88;5065373;28;20028;-65
2023/09/10 09:11:57;;;;;;;14.55;10.52;;;;;;;25.57;63.14;101654.34;5067852;28;20024;-66
2023/09/10 09:14:24;;;;;;;13.95;10.02;;;;;;;25.62;62.74;101649.34;5092392;28;20039;-66
2023/09/10 09:16:52;;;;;;;13.80;9.77;;;;;;;25.69;62.69;101657.34;5093464;28;20082;-66
2023/09/10 09:19:18;;;;;;;16.08;11.38;;;;;;;25.65;62.51;101648.66;5085653;28;20071;-65
2023/09/10 09:21:47;;;;;;;16.48;10.73;;;;;;;25.73;62.40;101644.13;5067020;28;20051;-65
2023/09/10 09:24:13;;;;;;;16.48;9.95;;;;;;;25.94;62.18;101650.00;5058933;28;20070;-65
2023/09/10 09:26:41;;;;;;;13.70;10.93;;;;;;;25.89;62.01;101651.00;5069470;28;20063;-66
2023/09/10 09:29:08;;;;;;;16.25;9.68;;;;;;;26.03;61.66;101644.28;5083838;28;20036;-66
2023/09/10 09:31:33;;;;;;;13.75;9.75;;;;;;;26.14;62.05;101642.75;5074106;28;20082;-66
2023/09/10 09:33:59;;;;;;;14.18;9.98;;;;;;;26.16;62.08;101643.22;5070738;28;20099;-65
2023/09/10 09:36:27;;;;;;;11.73;8.82;;;;;;;26.23;61.36;101639.84;5056770;28;20461;-64
2023/09/10 09:38:52;;;;;;;14.48;8.95;;;;;;;26.34;60.81;101638.31;5066439;28;20036;-66
2023/09/10 09:41:17;;;;;;;12.85;9.70;;;;;;;26.35;60.89;101639.97;5073119;28;20023;-66
2023/09/10 09:43:44;;;;;;;14.05;9.60;;;;;;;26.38;61.73;101633.59;5061176;28;20041;-66
2023/09/10 09:46:09;;;;;;;15.88;9.52;;;;;;;26.48;61.63;101630.38;5051602;28;20117;-66
2023/09/10 09:48:35;;;;;;;15.90;10.27;;;;;;;26.48;61.13;101630.38;5066446;28;20115;-66
2023/09/10 09:51:04;;;;;;;11.45;9.20;;;;;;;26.61;60.12;101620.78;5070658;28;20032;-67
2023/09/10 09:53:31;;;;;;;14.88;9.68;;;;;;;26.58;60.91;101623.50;5072574;28;20075;-67
2023/09/10 09:56:03;;;;;;;11.30;8.90;;;;;;;26.70;60.83;101622.75;5072047;28;20116;-67
2023/09/10 09:58:29;;;;;;;13.23;8.93;;;;;;;26.65;60.17;101620.94;5092876;28;20035;-66
2023/09/10 10:00:55;;;;;;;11.13;8.70;;;;;;;26.74;60.12;101620.88;5057903;28;20393;-66
2023/09/10 10:03:20;;;;;;;15.05;9.43;;;;;;;26.76;60.23;101616.50;5085199;28;20031;-66
2023/09/10 10:05:53;;;;;;;16.35;9.05;;;;;;;26.86;61.08;101615.25;5087447;28;20043;-65
2023/09/10 10:08:24;;;;;;;10.40;8.48;;;;;;;26.84;59.12;101617.63;5052412;28;20408;-65
2023/09/10 10:10:49;;;;;;;12.03;8.43;;;;;;;26.89;59.83;101617.44;5051473;28;20040;-67
2023/09/10 10:13:17;;;;;;;10.15;7.80;;;;;;;27.02;58.67;101618.34;5051465;28;20028;-67
2023/09/10 10:15:45;;;;;;;13.02;8.55;;;;;;;26.98;59.61;101608.81;5057704;28;20037;-67
2023/09/10 10:18:12;;;;;;;18.67;8.57;;;;;;;27.08;59.67;101623.50;5061141;28;20037;-67
2023/09/10 10:20:38;;;;;;;14.05;8.02;;;;;;;27.19;58.55;101612.53;5052236;28;20029;-68
2023/09/10 10:23:04;;;;;;;11.73;7.50;;;;;;;27.21;56.70;101609.34;5056673;28;20031;-64
2023/09/10 10:25:31;;;;;;;17.67;7.53;;;;;;;27.25;57.11;101610.31;5063110;28;20451;-66
2023/09/10 10:27:58;;;;;;;8.93;7.05;;;;;;;27.29;56.56;101612.09;5059621;28;20116;-66
2023/09/10 10:30:25;;;;;;;11.85;7.95;;;;;;;27.30;58.23;101610.09;5052624;28;20028;-66
2023/09/10 10:32:52;;;;;;;11.93;7.63;;;;;;;27.42;57.61;101605.28;5054074;28;20032;-65
2023/09/10 10:35:18;;;;;;;9.57;7.43;;;;;;;27.34;57.01;101602.50;5073120;28;20429;-64
2023/09/10 10:37:58;;;;;;;12.68;7.50;;;;;;;27.36;57.77;101600.16;5064137;28;20094;-64
2023/09/10 10:40:39;;;;;;;10.07;7.43;;;;;;;27.42;57.63;101601.59;5077787;28;20034;-64
2023/09/10 10:43:20;;;;;;;15.00;8.38;;;;;;;27.56;57.69;101598.44;5076132;28;20208;-65
2023/09/10 10:45:48;;;;;;;11.95;7.32;;;;;;;27.62;57.62;101597.03;5060376;28;20036;-65
2023/09/10 10:48:19;;;;;;;12.00;8.02;;;;;;;27.75;57.23;101595.09;5087709;28;20085;-65
2023/09/10 10:50:46;;;;;;;12.10;7.43;;;;;;;27.72;56.15;101598.63;5083055;28;20112;-66
2023/09/10 10:53:18;;;;;;;12.48;7.25;;;;;;;27.80;55.14;101604.25;5057221;28;20032;-65
2023/09/10 10:55:44;;;;;;;14.43;7.63;;;;;;;27.78;55.70;101594.38;5065761;28;20024;-66
2023/09/10 10:58:10;;;;;;;11.48;7.32;;;;;;;27.78;55.16;101588.66;5088970;28;20024;-66
2023/09/10 11:00:35;;;;;;;14.48;6.97;;;;;;;27.77;55.38;101589.84;5065995;28;20590;-66
2023/09/10 11:03:13;;;;;;;11.07;7.00;;;;;;;27.78;55.18;101594.38;5051057;28;20032;-66
2023/09/10 11:05:54;;;;;;;11.80;6.10;;;;;;;27.80;55.03;101586.31;5051305;28;20028;-65